Time;durP1;ratioP1;P1;durP2;ratioP2;P2;SDS_P1;SDS_P2;PMS_P1;PMS_P2;Temp;Humidity;BMP_temperature;BMP_pressure;BME280_temperature;BME280_humidity;BME280_pressure;Samples;Min_cycle;Max_cycle;Signal;HPM_P1;HPM_P2
2023/07/21 00:01:13;;;;;;;1.23;1.00;;;;;;;;;;5035945;28;20037;-62
2023/07/21 00:03:40;;;;;;;1.00;0.90;;;;;;;;;;5036961;28;20116;-62
2023/07/21 00:06:06;;;;;;;0.80;0.80;;;;;;;;;;5035514;28;20048;-62
2023/07/21 00:08:33;;;;;;;1.02;0.70;;;;;;;;;;5032496;28;20183;-62
2023/07/21 00:10:59;;;;;;;1.42;1.20;;;;;;;;;;5034570;28;20128;-62
2023/07/21 00:13:26;;;;;;;1.13;1.02;;;;;;;;;;5031167;28;20185;-62
2023/07/21 00:15:52;;;;;;;0.90;0.90;;;;;;;;;;5037066;28;20132;-62
2023/07/21 00:18:19;;;;;;;1.10;0.98;;;;;;;;;;5034579;28;20030;-62
2023/07/21 00:20:46;;;;;;;0.77;0.75;;;;;;;;;;5032881;28;20044;-62
2023/07/21 00:23:12;;;;;;;1.00;0.85;;;;;;;;;;5032975;28;20049;-62
2023/07/21 00:25:39;;;;;;;2.25;1.00;;;;;;;;;;5031656;28;20124;-62
2023/07/21 00:28:05;;;;;;;1.10;1.00;;;;;;;;;;5035884;28;20060;-62
2023/07/21 00:30:31;;;;;;;1.10;1.00;;;;;;;;;;5032089;28;20053;-63
2023/07/21 00:32:57;;;;;;;0.85;0.85;;;;;;;;;;5034537;28;20041;-62
2023/07/21 00:35:23;;;;;;;1.05;1.00;;;;;;;;;;5033466;28;20041;-62
2023/07/21 00:37:49;;;;;;;1.33;0.90;;;;;;;;;;5037053;28;20029;-62
2023/07/21 00:40:19;;;;;;;1.13;1.00;;;;;;;;;;5036718;28;20037;-62
2023/07/21 00:42:45;;;;;;;1.00;0.95;;;;;;;;;;5038094;28;20045;-62
2023/07/21 00:45:15;;;;;;;1.25;1.10;;;;;;;;;;5035262;28;20124;-62
2023/07/21 00:47:41;;;;;;;0.90;0.90;;;;;;;;;;5032192;28;20495;-62
2023/07/21 00:50:11;;;;;;;1.42;1.10;;;;;;;;;;5036266;28;20037;-62
2023/07/21 00:52:37;;;;;;;1.20;1.10;;;;;;;;;;5030778;28;20048;-62
2023/07/21 00:55:04;;;;;;;1.20;1.10;;;;;;;;;;5035117;28;20037;-62
2023/07/21 00:57:31;;;;;;;1.00;0.90;;;;;;;;;;5036614;28;20410;-62
2023/07/21 00:59:57;;;;;;;0.73;0.73;;;;;;;;;;5037350;28;20045;-62
2023/07/21 01:02:23;;;;;;;0.95;0.93;;;;;;;;;;5030647;28;20095;-62
2023/07/21 01:04:49;;;;;;;1.20;1.10;;;;;;;;;;5033699;28;20037;-62
2023/07/21 01:07:16;;;;;;;1.20;1.00;;;;;;;;;;5038501;28;20048;-62
2023/07/21 01:09:43;;;;;;;1.20;1.10;;;;;;;;;;5034841;28;20051;-62
2023/07/21 01:12:09;;;;;;;0.73;0.73;;;;;;;;;;5038963;28;20199;-62
2023/07/21 01:14:36;;;;;;;1.15;1.05;;;;;;;;;;5038709;28;20052;-62
2023/07/21 01:17:03;;;;;;;1.05;0.95;;;;;;;;;;5032037;28;20187;-62
2023/07/21 01:19:29;;;;;;;1.35;1.05;;;;;;;;;;5030907;28;20050;-62
2023/07/21 01:22:20;;;;;;;1.38;0.90;;;;;;;;;;5034173;28;20044;-62
2023/07/21 01:24:49;;;;;;;1.17;1.08;;;;;;;;;;5037376;28;20045;-62
2023/07/21 01:27:16;;;;;;;1.02;0.90;;;;;;;;;;5036752;28;20045;-62
2023/07/21 01:29:44;;;;;;;1.05;1.00;;;;;;;;;;5035600;28;20083;-62
2023/07/21 01:32:11;;;;;;;1.17;1.00;;;;;;;;;;5032311;28;20520;-62
2023/07/21 01:34:38;;;;;;;0.90;0.82;;;;;;;;;;5036571;28;20041;-62
2023/07/21 01:37:07;;;;;;;0.95;0.93;;;;;;;;;;5037141;28;20041;-62
2023/07/21 01:39:35;;;;;;;1.10;1.00;;;;;;;;;;5034714;28;20041;-62
2023/07/21 01:42:01;;;;;;;1.20;1.10;;;;;;;;;;5034459;28;20087;-62
2023/07/21 01:44:28;;;;;;;1.25;1.15;;;;;;;;;;5032644;28;20052;-62
2023/07/21 01:46:54;;;;;;;1.23;1.13;;;;;;;;;;5040819;28;20052;-62
2023/07/21 01:49:20;;;;;;;1.30;1.20;;;;;;;;;;5033307;28;20102;-62
2023/07/21 01:51:47;;;;;;;1.40;1.30;;;;;;;;;;5036689;28;20041;-62
2023/07/21 01:54:25;;;;;;;0.98;0.98;;;;;;;;;;5034786;28;20084;-62
2023/07/21 01:56:59;;;;;;;1.35;1.13;;;;;;;;;;5030739;28;20040;-62
2023/07/21 01:59:26;;;;;;;1.20;1.10;;;;;;;;;;5035244;28;20693;-62
2023/07/21 02:01:54;;;;;;;1.23;1.13;;;;;;;;;;5040679;28;20087;-62
2023/07/21 02:04:21;;;;;;;1.23;0.90;;;;;;;;;;5035148;28;20045;-62
2023/07/21 02:06:47;;;;;;;1.23;1.00;;;;;;;;;;5031465;28;20038;-62
2023/07/21 02:09:13;;;;;;;0.85;0.85;;;;;;;;;;5034894;28;20040;-62
2023/07/21 02:11:42;;;;;;;1.05;0.90;;;;;;;;;;5038848;28;20044;-63
2023/07/21 02:14:08;;;;;;;1.02;0.95;;;;;;;;;;5035106;28;20049;-62
2023/07/21 02:16:34;;;;;;;1.20;1.10;;;;;;;;;;5028213;28;20045;-62
2023/07/21 02:19:00;;;;;;;1.30;1.20;;;;;;;;;;5032292;28;20037;-62
2023/07/21 02:21:26;;;;;;;2.35;1.33;;;;;;;;;;5036833;28;20040;-62
2023/07/21 02:23:52;;;;;;;0.85;0.80;;;;;;;;;;5031481;28;20045;-62
2023/07/21 02:26:19;;;;;;;1.38;1.00;;;;;;;;;;5034044;28;20124;-62
2023/07/21 02:28:45;;;;;;;0.73;0.73;;;;;;;;;;5032072;28;20049;-62
2023/07/21 02:31:11;;;;;;;1.48;0.70;;;;;;;;;;5036247;28;20087;-62
2023/07/21 02:33:37;;;;;;;1.00;0.73;;;;;;;;;;5033842;28;20041;-62
2023/07/21 02:36:04;;;;;;;0.75;0.68;;;;;;;;;;5035708;28;20056;-62
2023/07/21 02:38:30;;;;;;;0.90;0.90;;;;;;;;;;5035569;28;20052;-61
2023/07/21 02:41:02;;;;;;;0.85;0.85;;;;;;;;;;5034893;28;20111;-61
2023/07/21 02:43:28;;;;;;;0.70;0.50;;;;;;;;;;5036474;28;20409;-61
2023/07/21 02:45:54;;;;;;;0.82;0.82;;;;;;;;;;5034939;28;20060;-61
2023/07/21 02:48:21;;;;;;;0.70;0.60;;;;;;;;;;5033908;28;20094;-61
2023/07/21 02:50:50;;;;;;;0.70;0.70;;;;;;;;;;5036084;28;20033;-61
2023/07/21 02:53:17;;;;;;;1.23;0.52;;;;;;;;;;5035027;28;20134;-62
2023/07/21 02:55:44;;;;;;;0.52;0.50;;;;;;;;;;5037968;28;20037;-62
2023/07/21 02:58:11;;;;;;;0.50;0.50;;;;;;;;;;5036355;28;20045;-62
2023/07/21 03:00:37;;;;;;;0.57;0.57;;;;;;;;;;5031968;28;20505;-62
2023/07/21 03:03:04;;;;;;;0.60;0.60;;;;;;;;;;5035825;28;20397;-62
2023/07/21 03:05:30;;;;;;;0.55;0.55;;;;;;;;;;5030848;28;20640;-62
2023/07/21 03:07:57;;;;;;;0.75;0.68;;;;;;;;;;5032250;28;20084;-62
2023/07/21 03:10:23;;;;;;;0.40;0.40;;;;;;;;;;5034571;28;20045;-62
2023/07/21 03:12:49;;;;;;;1.00;0.82;;;;;;;;;;5033213;28;20048;-62
2023/07/21 03:15:15;;;;;;;0.70;0.70;;;;;;;;;;5031444;28;20094;-62
2023/07/21 03:17:41;;;;;;;0.40;0.40;;;;;;;;;;5030624;28;20041;-62
2023/07/21 03:20:12;;;;;;;0.93;0.82;;;;;;;;;;5031142;28;20409;-62
2023/07/21 03:22:38;;;;;;;0.80;0.70;;;;;;;;;;5028107;28;20049;-62
2023/07/21 03:25:06;;;;;;;0.90;0.90;;;;;;;;;;5034233;28;20307;-62
2023/07/21 03:27:33;;;;;;;0.90;0.63;;;;;;;;;;5040384;28;20501;-62
2023/07/21 03:29:59;;;;;;;1.00;0.90;;;;;;;;;;5034209;28;20509;-62
2023/07/21 03:32:25;;;;;;;0.98;0.90;;;;;;;;;;5035655;28;20045;-62
2023/07/21 03:34:52;;;;;;;0.80;0.80;;;;;;;;;;5041275;28;20041;-62
2023/07/21 03:37:18;;;;;;;0.73;0.60;;;;;;;;;;5036255;28;20099;-62
2023/07/21 03:39:44;;;;;;;0.70;0.70;;;;;;;;;;5035929;28;20134;-62
2023/07/21 03:42:11;;;;;;;0.60;0.60;;;;;;;;;;5036706;28;20056;-62
2023/07/21 03:44:37;;;;;;;0.80;0.70;;;;;;;;;;5038825;28;20053;-62
2023/07/21 03:47:03;;;;;;;0.60;0.60;;;;;;;;;;5042528;28;20055;-62
2023/07/21 03:49:29;;;;;;;0.80;0.63;;;;;;;;;;5040350;28;20045;-62
2023/07/21 03:51:55;;;;;;;0.77;0.77;;;;;;;;;;5037815;28;20060;-62
2023/07/21 03:54:21;;;;;;;0.90;0.90;;;;;;;;;;5035290;28;20045;-62
2023/07/21 03:56:47;;;;;;;0.95;0.95;;;;;;;;;;5041223;28;20049;-62
2023/07/21 03:59:13;;;;;;;0.90;0.90;;;;;;;;;;5039648;28;20052;-62
2023/07/21 04:01:39;;;;;;;1.00;0.90;;;;;;;;;;5033052;28;20578;-62
2023/07/21 04:04:05;;;;;;;0.90;0.90;;;;;;;;;;5033633;28;20045;-62
2023/07/21 04:06:31;;;;;;;0.70;0.68;;;;;;;;;;5031947;28;20498;-62
2023/07/21 04:08:57;;;;;;;1.00;0.90;;;;;;;;;;5035402;28;20041;-62
2023/07/21 04:11:23;;;;;;;0.60;0.57;;;;;;;;;;5037277;28;20060;-62
2023/07/21 04:13:49;;;;;;;0.88;0.88;;;;;;;;;;5036887;28;20052;-62
2023/07/21 04:16:15;;;;;;;1.02;0.90;;;;;;;;;;5035931;28;20120;-62
2023/07/21 04:18:41;;;;;;;0.90;0.90;;;;;;;;;;5031965;28;20120;-62
2023/07/21 04:21:07;;;;;;;1.20;1.10;;;;;;;;;;5033625;28;20908;-62
2023/07/21 04:23:34;;;;;;;1.23;0.90;;;;;;;;;;5035216;28;20040;-62
2023/07/21 04:26:00;;;;;;;0.88;0.80;;;;;;;;;;5033854;28;20049;-62
2023/07/21 04:28:26;;;;;;;1.00;0.90;;;;;;;;;;5035352;28;20983;-62
2023/07/21 04:30:56;;;;;;;1.13;1.02;;;;;;;;;;5039017;28;20136;-62
2023/07/21 04:33:22;;;;;;;0.80;0.77;;;;;;;;;;5033899;28;20048;-62
2023/07/21 04:35:48;;;;;;;1.30;1.17;;;;;;;;;;5034972;28;20588;-62
2023/07/21 04:38:14;;;;;;;1.08;1.00;;;;;;;;;;5038915;28;20045;-62
2023/07/21 04:40:46;;;;;;;1.70;1.10;;;;;;;;;;5033681;28;20037;-62
2023/07/21 04:43:13;;;;;;;;;;;;;;;;;;5038973;28;20127;-62
2023/07/21 04:45:43;;;;;;;1.25;1.02;;;;;;;;;;5049814;28;19924;-62
2023/07/21 04:48:09;;;;;;;0.65;0.65;;;;;;;;;;5036477;28;20038;-62
2023/07/21 04:50:35;;;;;;;1.00;0.90;;;;;;;;;;5034251;28;20048;-62
2023/07/21 04:53:01;;;;;;;1.30;1.10;;;;;;;;;;5035568;28;20049;-62
2023/07/21 04:55:28;;;;;;;1.65;1.30;;;;;;;;;;5031289;28;20116;-62
2023/07/21 04:57:54;;;;;;;1.73;1.20;;;;;;;;;;5030504;28;20037;-62
2023/07/21 05:00:21;;;;;;;1.00;0.90;;;;;;;;;;5034609;28;20051;-62
2023/07/21 05:02:47;;;;;;;0.90;0.90;;;;;;;;;;5035223;28;20100;-62
2023/07/21 05:05:13;;;;;;;2.05;1.38;;;;;;;;;;5037923;28;20352;-62
2023/07/21 05:07:39;;;;;;;1.20;1.00;;;;;;;;;;5036980;28;20042;-62
2023/07/21 05:10:05;;;;;;;1.10;1.00;;;;;;;;;;5034395;28;20041;-62
2023/07/21 05:12:31;;;;;;;1.25;0.93;;;;;;;;;;5032426;28;20621;-62
2023/07/21 05:14:57;;;;;;;1.15;0.82;;;;;;;;;;5038453;28;20117;-62
2023/07/21 05:17:24;;;;;;;0.80;0.80;;;;;;;;;;5036739;28;20120;-62
2023/07/21 05:19:50;;;;;;;1.10;0.80;;;;;;;;;;5035894;28;20402;-62
2023/07/21 05:22:16;;;;;;;0.80;0.80;;;;;;;;;;5030378;28;20557;-62
2023/07/21 05:24:42;;;;;;;0.75;0.70;;;;;;;;;;5035960;28;20441;-62
2023/07/21 05:27:08;;;;;;;1.25;0.90;;;;;;;;;;5039935;28;20405;-62
2023/07/21 05:29:34;;;;;;;0.88;0.88;;;;;;;;;;5038428;28;20258;-62
2023/07/21 05:32:03;;;;;;;0.85;0.80;;;;;;;;;;5034480;28;20033;-62
2023/07/21 05:34:32;;;;;;;0.80;0.80;;;;;;;;;;5030264;28;20301;-62
2023/07/21 05:36:59;;;;;;;0.90;0.82;;;;;;;;;;5031891;28;20049;-62
2023/07/21 05:39:27;;;;;;;0.68;0.68;;;;;;;;;;5034083;28;20033;-62
2023/07/21 05:41:55;;;;;;;1.20;1.10;;;;;;;;;;5039265;28;20388;-62
2023/07/21 05:44:21;;;;;;;0.95;0.82;;;;;;;;;;5038473;28;20116;-62
2023/07/21 05:46:47;;;;;;;0.60;0.60;;;;;;;;;;5037741;28;20116;-62
2023/07/21 05:49:14;;;;;;;1.30;0.90;;;;;;;;;;5034610;28;20585;-62
2023/07/21 05:51:40;;;;;;;0.70;0.70;;;;;;;;;;5034061;28;20131;-62
2023/07/21 05:54:07;;;;;;;1.00;0.73;;;;;;;;;;5034848;28;20288;-62
2023/07/21 05:56:33;;;;;;;1.75;0.82;;;;;;;;;;5031821;28;20032;-62
2023/07/21 05:58:59;;;;;;;1.38;1.00;;;;;;;;;;5033903;28;20048;-62
2023/07/21 06:01:25;;;;;;;2.17;0.80;;;;;;;;;;5036403;28;20429;-62
2023/07/21 06:03:51;;;;;;;0.60;0.60;;;;;;;;;;5031510;28;20095;-62
2023/07/21 06:06:17;;;;;;;1.15;0.90;;;;;;;;;;5029956;28;20056;-62
2023/07/21 06:08:43;;;;;;;0.60;0.50;;;;;;;;;;5032811;28;20034;-62
2023/07/21 06:11:09;;;;;;;0.52;0.52;;;;;;;;;;5036672;28;20148;-62
2023/07/21 06:13:35;;;;;;;0.50;0.40;;;;;;;;;;5036105;28;20049;-62
2023/07/21 06:16:01;;;;;;;0.70;0.65;;;;;;;;;;5037161;28;20048;-62
2023/07/21 06:18:27;;;;;;;0.80;0.80;;;;;;;;;;5032073;28;20060;-62
2023/07/21 06:20:53;;;;;;;0.80;0.70;;;;;;;;;;5034235;28;20100;-62
2023/07/21 06:23:20;;;;;;;0.30;0.30;;;;;;;;;;5032717;28;20060;-62
2023/07/21 06:25:46;;;;;;;0.50;0.40;;;;;;;;;;5032610;28;20041;-62
2023/07/21 06:28:13;;;;;;;0.60;0.60;;;;;;;;;;5039880;28;20037;-62
2023/07/21 06:30:39;;;;;;;0.60;0.60;;;;;;;;;;5035676;28;20029;-62
2023/07/21 06:33:05;;;;;;;0.70;0.70;;;;;;;;;;5034312;28;20060;-62
2023/07/21 06:35:33;;;;;;;0.88;0.88;;;;;;;;;;5035396;28;20048;-62
2023/07/21 06:37:59;;;;;;;1.17;0.98;;;;;;;;;;5032051;28;20159;-62
2023/07/21 06:40:25;;;;;;;0.70;0.70;;;;;;;;;;5031331;28;20647;-62
2023/07/21 06:42:51;;;;;;;0.70;0.70;;;;;;;;;;5034089;28;20411;-62
2023/07/21 06:45:17;;;;;;;0.90;0.60;;;;;;;;;;5033436;28;20088;-62
2023/07/21 06:47:43;;;;;;;0.65;0.65;;;;;;;;;;5042674;28;20044;-62
2023/07/21 06:50:10;;;;;;;0.77;0.77;;;;;;;;;;5031638;28;20033;-62
2023/07/21 06:52:37;;;;;;;0.52;0.50;;;;;;;;;;5033399;28;20276;-62
2023/07/21 06:55:03;;;;;;;0.43;0.43;;;;;;;;;;5037090;28;20037;-62
2023/07/21 06:57:29;;;;;;;0.40;0.40;;;;;;;;;;5033432;28;20056;-62
2023/07/21 06:59:55;;;;;;;0.40;0.30;;;;;;;;;;5037872;28;20041;-62
2023/07/21 07:02:21;;;;;;;0.63;0.63;;;;;;;;;;5039133;28;20045;-62
2023/07/21 07:04:48;;;;;;;0.63;0.63;;;;;;;;;;5041276;28;20048;-62
2023/07/21 07:07:18;;;;;;;1.05;0.90;;;;;;;;;;5034340;28;20041;-62
2023/07/21 07:09:44;;;;;;;2.03;0.95;;;;;;;;;;5044136;28;20127;-63
2023/07/21 07:12:10;;;;;;;0.70;0.70;;;;;;;;;;5037729;28;20116;-62
2023/07/21 07:14:36;;;;;;;1.25;1.15;;;;;;;;;;5040377;28;20683;-62
2023/07/21 07:17:03;;;;;;;1.02;0.88;;;;;;;;;;5032046;28;20043;-60
2023/07/21 07:19:29;;;;;;;0.65;0.65;;;;;;;;;;5033034;28;20033;-62
2023/07/21 07:21:55;;;;;;;0.55;0.55;;;;;;;;;;5030629;28;20167;-63
2023/07/21 07:24:21;;;;;;;0.60;0.60;;;;;;;;;;5037724;28;20147;-58
2023/07/21 07:26:47;;;;;;;1.13;0.95;;;;;;;;;;5031263;28;20192;-61
2023/07/21 07:29:16;;;;;;;0.40;0.35;;;;;;;;;;5032507;28;20045;-61
2023/07/21 07:31:43;;;;;;;0.50;0.50;;;;;;;;;;5032444;28;20037;-61
2023/07/21 07:34:09;;;;;;;1.05;0.70;;;;;;;;;;5037415;28;20040;-62
2023/07/21 07:36:34;;;;;;;1.35;1.25;;;;;;;;;;5034382;28;20127;-61
2023/07/21 07:39:01;;;;;;;0.70;0.70;;;;;;;;;;5036358;28;20568;-61
2023/07/21 07:41:27;;;;;;;0.52;0.52;;;;;;;;;;5033624;28;20635;-61
2023/07/21 07:43:54;;;;;;;0.63;0.60;;;;;;;;;;5034035;28;20063;-62
2023/07/21 07:46:20;;;;;;;0.65;0.52;;;;;;;;;;5036754;28;20505;-64
2023/07/21 07:48:47;;;;;;;0.57;0.57;;;;;;;;;;5044729;28;20037;-61
2023/07/21 07:51:13;;;;;;;0.60;0.60;;;;;;;;;;5035422;28;20040;-61
2023/07/21 07:53:39;;;;;;;0.40;0.40;;;;;;;;;;5040149;28;20049;-61
2023/07/21 07:56:05;;;;;;;0.30;0.30;;;;;;;;;;5044708;28;20044;-61
2023/07/21 07:58:32;;;;;;;0.47;0.45;;;;;;;;;;5038108;28;20041;-61
2023/07/21 08:00:58;;;;;;;0.40;0.40;;;;;;;;;;5032035;28;20494;-61
2023/07/21 08:03:25;;;;;;;0.43;0.43;;;;;;;;;;5026003;28;20045;-61
2023/07/21 08:05:51;;;;;;;0.20;0.20;;;;;;;;;;5025974;28;20045;-61
2023/07/21 08:08:18;;;;;;;0.40;0.30;;;;;;;;;;5025835;28;20050;-61
2023/07/21 08:10:44;;;;;;;0.40;0.40;;;;;;;;;;5026453;28;20095;-61
2023/07/21 08:13:11;;;;;;;0.25;0.25;;;;;;;;;;5026854;28;20299;-61
2023/07/21 08:15:40;;;;;;;0.30;0.30;;;;;;;;;;5026979;28;20132;-61
2023/07/21 08:18:06;;;;;;;2.05;0.50;;;;;;;;;;5026378;28;20742;-61
2023/07/21 08:20:32;;;;;;;0.30;0.30;;;;;;;;;;5027013;28;20457;-61
2023/07/21 08:22:58;;;;;;;0.20;0.20;;;;;;;;;;5027124;28;20033;-61
2023/07/21 08:25:25;;;;;;;0.20;0.15;;;;;;;;;;5026037;28;20401;-61
2023/07/21 08:27:52;;;;;;;0.15;0.15;;;;;;;;;;5026873;28;20046;-61
2023/07/21 08:30:18;;;;;;;0.20;0.20;;;;;;;;;;5026872;28;20048;-61
2023/07/21 08:32:44;;;;;;;0.10;0.10;;;;;;;;;;5026367;28;20037;-61
2023/07/21 08:35:10;;;;;;;0.20;0.20;;;;;;;;;;5026570;28;20409;-61
2023/07/21 08:37:38;;;;;;;0.15;0.15;;;;;;;;;;5026592;28;20072;-61
2023/07/21 08:40:04;;;;;;;0.10;0.10;;;;;;;;;;5025875;28;20045;-61
2023/07/21 08:42:31;;;;;;;0.00;0.00;;;;;;;;;;5026113;28;20383;-61
2023/07/21 08:44:57;;;;;;;0.30;0.30;;;;;;;;;;5025617;28;20046;-61
2023/07/21 08:47:23;;;;;;;0.38;0.35;;;;;;;;;;5026156;28;20114;-61
2023/07/21 08:49:50;;;;;;;0.40;0.40;;;;;;;;;;5026089;28;20117;-61
2023/07/21 08:52:16;;;;;;;0.10;0.10;;;;;;;;;;5025488;28;20044;-61
2023/07/21 08:54:45;;;;;;;0.17;0.17;;;;;;;;;;5026728;28;20077;-61
2023/07/21 08:57:12;;;;;;;0.40;0.40;;;;;;;;;;5026197;28;20041;-61
2023/07/21 08:59:38;;;;;;;0.80;0.80;;;;;;;;;;5025292;28;20395;-61
2023/07/21 09:02:04;;;;;;;0.40;0.40;;;;;;;;;;5026067;28;20346;-61
2023/07/21 09:04:31;;;;;;;0.63;0.60;;;;;;;;;;5025514;28;20056;-61
2023/07/21 09:06:57;;;;;;;0.50;0.50;;;;;;;;;;5025226;28;20045;-61
2023/07/21 09:09:24;;;;;;;0.93;0.45;;;;;;;;;;5025771;28;20463;-61
2023/07/21 09:11:59;;;;;;;0.47;0.45;;;;;;;;;;5025579;28;20053;-61
2023/07/21 09:14:35;;;;;;;1.38;0.70;;;;;;;;;;5024776;28;20041;-61
2023/07/21 09:17:03;;;;;;;0.73;0.47;;;;;;;;;;5025821;28;20071;-61
2023/07/21 09:19:29;;;;;;;0.60;0.40;;;;;;;;;;5025512;28;20049;-61
2023/07/21 09:21:56;;;;;;;0.50;0.50;;;;;;;;;;5024303;28;20128;-61
2023/07/21 09:24:22;;;;;;;0.77;0.60;;;;;;;;;;5025346;28;20128;-61
2023/07/21 09:26:48;;;;;;;0.60;0.60;;;;;;;;;;5025852;28;20140;-61
2023/07/21 09:29:18;;;;;;;0.93;0.50;;;;;;;;;;5025270;28;20953;-61
2023/07/21 09:31:47;;;;;;;1.95;0.38;;;;;;;;;;5025777;28;20560;-61
2023/07/21 09:34:13;;;;;;;0.25;0.25;;;;;;;;;;5024951;28;20045;-61
2023/07/21 09:36:45;;;;;;;1.50;0.50;;;;;;;;;;5025532;28;20156;-61
2023/07/21 09:39:14;;;;;;;0.73;0.50;;;;;;;;;;5025262;28;20045;-61
2023/07/21 09:41:40;;;;;;;0.50;0.50;;;;;;;;;;5024744;28;20083;-61
2023/07/21 09:44:07;;;;;;;0.38;0.38;;;;;;;;;;5025218;28;20057;-61
2023/07/21 09:46:33;;;;;;;0.40;0.40;;;;;;;;;;5025323;28;20041;-61
2023/07/21 09:48:59;;;;;;;1.17;0.43;;;;;;;;;;5024600;28;20660;-61
2023/07/21 09:51:28;;;;;;;1.20;0.50;;;;;;;;;;5024917;28;20132;-61
2023/07/21 09:53:55;;;;;;;1.10;0.60;;;;;;;;;;5024967;28;20049;-61
2023/07/21 09:56:21;;;;;;;0.43;0.38;;;;;;;;;;5024000;28;20556;-61
2023/07/21 09:58:50;;;;;;;0.32;0.32;;;;;;;;;;5025016;28;20049;-61
2023/07/21 10:01:16;;;;;;;0.40;0.40;;;;;;;;;;5025232;28;20050;-61
2023/07/21 10:03:43;;;;;;;0.75;0.40;;;;;;;;;;5024945;28;20049;-61
2023/07/21 10:06:10;;;;;;;0.38;0.38;;;;;;;;;;5024578;28;20398;-61
2023/07/21 10:08:36;;;;;;;0.30;0.30;;;;;;;;;;5024818;28;20456;-61
2023/07/21 10:11:04;;;;;;;0.30;0.30;;;;;;;;;;5024598;28;20037;-61
2023/07/21 10:13:31;;;;;;;0.32;0.28;;;;;;;;;;5024457;28;20053;-61
2023/07/21 10:16:07;;;;;;;0.25;0.25;;;;;;;;;;5024987;28;20132;-61
2023/07/21 10:18:33;;;;;;;0.30;0.30;;;;;;;;;;5024138;28;20513;-61
2023/07/21 10:21:00;;;;;;;0.20;0.20;;;;;;;;;;5025039;28;20088;-61
2023/07/21 10:23:34;;;;;;;0.10;0.10;;;;;;;;;;5023709;28;20053;-61
2023/07/21 10:26:01;;;;;;;0.50;0.30;;;;;;;;;;5024839;28;20052;-61
2023/07/21 10:28:30;;;;;;;0.40;0.40;;;;;;;;;;5024699;28;20037;-61
2023/07/21 10:31:15;;;;;;;0.68;0.32;;;;;;;;;;5024039;28;20052;-61
2023/07/21 10:33:41;;;;;;;0.40;0.40;;;;;;;;;;5027484;28;20485;-61
2023/07/21 10:36:14;;;;;;;0.60;0.50;;;;;;;;;;5028311;28;20045;-61
2023/07/21 10:38:41;;;;;;;0.38;0.38;;;;;;;;;;5028207;28;20445;-61
2023/07/21 10:41:07;;;;;;;0.30;0.30;;;;;;;;;;5028695;28;20084;-61
2023/07/21 10:43:33;;;;;;;0.30;0.30;;;;;;;;;;5028725;28;20045;-61
2023/07/21 10:45:59;;;;;;;0.50;0.50;;;;;;;;;;5044629;28;20109;-61
2023/07/21 10:48:26;;;;;;;0.70;0.70;;;;;;;;;;5066723;28;20048;-61
2023/07/21 10:50:56;;;;;;;0.40;0.40;;;;;;;;;;5067869;28;20041;-61
2023/07/21 10:53:23;;;;;;;0.70;0.47;;;;;;;;;;5066681;28;20036;-61
2023/07/21 10:55:52;;;;;;;0.90;0.73;;;;;;;;;;5068213;28;20455;-61
2023/07/21 10:58:18;;;;;;;0.63;0.60;;;;;;;;;;5068017;28;20041;-61
2023/07/21 11:00:49;;;;;;;0.50;0.50;;;;;;;;;;5067855;28;20044;-61
2023/07/21 11:03:16;;;;;;;0.70;0.50;;;;;;;;;;5068411;28;20389;-61
2023/07/21 11:05:42;;;;;;;0.90;0.90;;;;;;;;;;5067977;28;20036;-61
2023/07/21 11:08:27;;;;;;;0.95;0.60;;;;;;;;;;5067884;28;20085;-61
2023/07/21 11:10:53;;;;;;;0.60;0.57;;;;;;;;;;5067871;28;20524;-61
2023/07/21 11:13:20;;;;;;;0.50;0.50;;;;;;;;;;5065347;28;20061;-61
2023/07/21 11:15:56;;;;;;;1.48;0.80;;;;;;;;;;5068071;28;20044;-61
2023/07/21 11:18:22;;;;;;;1.02;0.93;;;;;;;;;;5067702;28;20083;-61
2023/07/21 11:20:57;;;;;;;0.90;0.60;;;;;;;;;;5067083;28;20068;-61
2023/07/21 11:23:24;;;;;;;0.63;0.63;;;;;;;;;;5067623;28;20049;-61
2023/07/21 11:26:12;;;;;;;0.82;0.65;;;;;;;;;;5067723;28;20045;-61
2023/07/21 11:28:39;;;;;;;0.68;0.68;;;;;;;;;;5067206;28;20404;-61
2023/07/21 11:31:13;;;;;;;2.05;0.73;;;;;;;;;;5067757;28;20443;-61
2023/07/21 11:33:42;;;;;;;0.75;0.75;;;;;;;;;;5067062;28;20124;-61
2023/07/21 11:36:22;;;;;;;1.38;0.70;;;;;;;;;;5067338;28;20094;-61
2023/07/21 11:38:58;;;;;;;0.80;0.80;;;;;;;;;;5067635;28;20488;-61
2023/07/21 11:41:44;;;;;;;1.13;0.80;;;;;;;;;;5066862;28;20119;-61
2023/07/21 11:44:17;;;;;;;1.02;0.93;;;;;;;;;;5067189;28;20083;-61
2023/07/21 11:46:54;;;;;;;1.20;0.80;;;;;;;;;;5067466;28;20064;-61
2023/07/21 11:49:21;;;;;;;1.15;0.98;;;;;;;;;;5066373;28;20053;-61
2023/07/21 11:51:49;;;;;;;1.40;1.30;;;;;;;;;;5067560;28;20044;-61
2023/07/21 11:54:18;;;;;;;2.72;0.80;;;;;;;;;;5067507;28;20052;-61
2023/07/21 11:56:44;;;;;;;0.90;0.80;;;;;;;;;;5067089;28;20036;-61
2023/07/21 11:59:10;;;;;;;0.50;0.50;;;;;;;;;;5067273;28;20037;-61
2023/07/21 12:01:38;;;;;;;0.63;0.40;;;;;;;;;;5066980;28;20071;-61
2023/07/21 12:04:04;;;;;;;0.98;0.60;;;;;;;;;;5066738;28;20431;-61
2023/07/21 12:06:30;;;;;;;0.82;0.82;;;;;;;;;;5066912;28;20044;-61
2023/07/21 12:08:56;;;;;;;0.82;0.82;;;;;;;;;;5066320;28;20085;-61
2023/07/21 12:11:23;;;;;;;0.80;0.70;;;;;;;;;;5066828;28;20044;-61
2023/07/21 12:13:49;;;;;;;0.90;0.60;;;;;;;;;;5066515;28;20056;-61
2023/07/21 12:16:16;;;;;;;0.82;0.73;;;;;;;;;;5066251;28;20053;-61
2023/07/21 12:18:42;;;;;;;0.77;0.55;;;;;;;;;;5067448;28;20045;-62
2023/07/21 12:21:08;;;;;;;0.80;0.70;;;;;;;;;;5066619;28;20052;-61
2023/07/21 12:23:37;;;;;;;1.00;0.90;;;;;;;;;;5065976;28;20123;-61
2023/07/21 12:26:03;;;;;;;1.10;0.70;;;;;;;;;;5066643;28;20623;-61
2023/07/21 12:28:29;;;;;;;0.93;0.70;;;;;;;;;;5066204;28;20131;-61
2023/07/21 12:30:55;;;;;;;0.75;0.63;;;;;;;;;;5066077;28;20260;-61
2023/07/21 12:33:21;;;;;;;0.50;0.50;;;;;;;;;;5066707;28;20123;-61
2023/07/21 12:35:47;;;;;;;0.70;0.70;;;;;;;;;;5066489;28;20067;-61
2023/07/21 12:38:13;;;;;;;0.82;0.60;;;;;;;;;;5066067;28;20493;-61
2023/07/21 12:40:40;;;;;;;0.40;0.40;;;;;;;;;;5066394;28;20059;-61
2023/07/21 12:43:07;;;;;;;0.82;0.65;;;;;;;;;;5066206;28;20292;-61
2023/07/21 12:45:33;;;;;;;0.93;0.85;;;;;;;;;;5065560;28;21056;-61
2023/07/21 12:47:59;;;;;;;0.95;0.80;;;;;;;;;;5066366;28;20044;-61
2023/07/21 12:50:25;;;;;;;1.17;0.80;;;;;;;;;;5066058;28;20060;-60
2023/07/21 12:52:51;;;;;;;1.33;0.85;;;;;;;;;;5065378;28;20048;-60
2023/07/21 12:55:17;;;;;;;0.90;0.80;;;;;;;;;;5066362;28;20071;-60
2023/07/21 12:57:43;;;;;;;0.50;0.50;;;;;;;;;;5066432;28;20043;-60
2023/07/21 13:00:11;;;;;;;0.60;0.60;;;;;;;;;;5065072;28;20068;-60
2023/07/21 13:02:37;;;;;;;0.77;0.60;;;;;;;;;;5065988;28;20146;-60
2023/07/21 13:05:05;;;;;;;0.57;0.57;;;;;;;;;;5065770;28;20049;-60
2023/07/21 13:07:32;;;;;;;0.63;0.40;;;;;;;;;;5064320;28;20420;-61
2023/07/21 13:09:58;;;;;;;0.60;0.60;;;;;;;;;;5065789;28;20045;-61
2023/07/21 13:12:24;;;;;;;0.40;0.40;;;;;;;;;;5064547;28;20062;-61
2023/07/21 13:14:50;;;;;;;0.80;0.80;;;;;;;;;;5065675;28;20070;-61
2023/07/21 13:17:16;;;;;;;0.73;0.73;;;;;;;;;;5064696;28;20040;-61
2023/07/21 13:19:42;;;;;;;0.90;0.82;;;;;;;;;;5064096;28;20037;-61
2023/07/21 13:22:08;;;;;;;0.40;0.40;;;;;;;;;;5065375;28;20051;-61
2023/07/21 13:24:34;;;;;;;0.47;0.47;;;;;;;;;;5065453;28;20037;-61
2023/07/21 13:27:00;;;;;;;0.43;0.43;;;;;;;;;;5064536;28;20400;-61
2023/07/21 13:29:26;;;;;;;1.25;0.70;;;;;;;;;;5065509;28;20061;-61
2023/07/21 13:31:52;;;;;;;1.15;0.70;;;;;;;;;;5065383;28;20040;-61
2023/07/21 13:34:18;;;;;;;0.47;0.47;;;;;;;;;;5059907;28;20128;-61
2023/07/21 13:36:48;;;;;;;0.73;0.60;;;;;;;;;;5031082;28;20128;-61
2023/07/21 13:39:15;;;;;;;0.40;0.38;;;;;;;;;;5034606;28;20041;-61
2023/07/21 13:41:41;;;;;;;0.40;0.40;;;;;;;;;;5029885;28;20119;-61
2023/07/21 13:44:07;;;;;;;0.43;0.43;;;;;;;;;;5027651;28;20459;-61
2023/07/21 13:46:33;;;;;;;0.90;0.70;;;;;;;;;;5037681;28;20443;-61
2023/07/21 13:48:59;;;;;;;0.95;0.85;;;;;;;;;;5038629;28;20041;-61
2023/07/21 13:51:25;;;;;;;0.82;0.80;;;;;;;;;;5043196;28;20086;-61
2023/07/21 13:53:51;;;;;;;1.05;0.75;;;;;;;;;;5043364;28;20041;-62
2023/07/21 13:56:18;;;;;;;1.08;0.75;;;;;;;;;;5039856;28;20045;-61
2023/07/21 13:58:44;;;;;;;0.80;0.60;;;;;;;;;;5041051;28;20033;-61
2023/07/21 14:01:11;;;;;;;0.80;0.77;;;;;;;;;;5039312;28;20033;-61
2023/07/21 14:03:37;;;;;;;0.68;0.60;;;;;;;;;;5039883;28;20037;-61
2023/07/21 14:06:03;;;;;;;0.82;0.68;;;;;;;;;;5039419;28;20044;-61
2023/07/21 14:08:30;;;;;;;0.50;0.47;;;;;;;;;;5043736;28;20047;-61
2023/07/21 14:10:57;;;;;;;0.65;0.60;;;;;;;;;;5039721;28;20037;-61
2023/07/21 14:13:23;;;;;;;0.80;0.80;;;;;;;;;;5044628;28;20053;-61
2023/07/21 14:15:49;;;;;;;0.65;0.65;;;;;;;;;;5034948;28;20475;-61
2023/07/21 14:18:15;;;;;;;0.93;0.63;;;;;;;;;;5032735;28;20041;-61
2023/07/21 14:20:41;;;;;;;0.50;0.50;;;;;;;;;;5032811;28;20033;-61
2023/07/21 14:23:08;;;;;;;0.77;0.60;;;;;;;;;;5028535;28;20128;-61
2023/07/21 14:25:34;;;;;;;0.70;0.70;;;;;;;;;;5039312;28;20573;-62
2023/07/21 14:28:00;;;;;;;0.70;0.70;;;;;;;;;;5031337;28;20053;-62
2023/07/21 14:30:26;;;;;;;0.77;0.77;;;;;;;;;;5026646;28;20096;-62
2023/07/21 14:32:52;;;;;;;0.70;0.70;;;;;;;;;;5032514;28;20041;-62
2023/07/21 14:35:20;;;;;;;0.50;0.50;;;;;;;;;;5033314;28;20042;-62
2023/07/21 14:37:46;;;;;;;1.15;0.80;;;;;;;;;;5043963;28;20102;-56
2023/07/21 14:40:14;;;;;;;0.90;0.80;;;;;;;;;;5028218;28;20072;-62
2023/07/21 14:42:40;;;;;;;0.50;0.50;;;;;;;;;;5030697;28;20113;-62